METAR Data
IDs: Format: Raw Decoded Include TAF

Data at: 1030 UTC 26 Sep 2018

KVCB 260953Z AUTO 00000KT 10SM CLR 12/07 A2993 RMK AO2 SLP132 T01220067
KVCB 260853Z AUTO 00000KT 10SM CLR 13/07 A2991 RMK AO2 SLP127 T01330067 53003
KVCB 260753Z AUTO 00000KT 10SM CLR 13/06 A2991 RMK AO2 SLP125 T01330061 403670100
KVCB 260653Z AUTO 00000KT 10SM CLR 13/05 A2990 RMK AO2 SLP124 T01330050
KVCB 260553Z AUTO 22003KT 10SM CLR 17/07 A2990 RMK AO2 SLP124 T01670067 10344 20144 51010
KVCB 260453Z AUTO 00000KT 10SM CLR 17/07 A2990 RMK AO2 SLP122 T01720067
KVCB 260353Z AUTO 00000KT 10SM CLR 19/04 A2988 RMK AO2 SLP118 T01890039
KVCB 260253Z AUTO 23004KT 10SM CLR 26/07 A2987 RMK AO2 SLP113 T02560072 53001
KVCB 260153Z AUTO 22005KT 10SM CLR 29/08 A2986 RMK AO2 SLP110 T02940083
KVCB 260053Z AUTO 22007KT 10SM CLR 33/05 A2986 RMK AO2 SLP111 T03280050
KVCB 252353Z AUTO 18003KT 10SM CLR 34/03 A2987 RMK AO2 SLP112 T03440033 10367 20300 56010
KVCB 252253Z AUTO 02004KT 10SM CLR 36/M02 A2987 RMK AO2 SLP114 T03611022
KVCB 252153Z AUTO VRB04KT 10SM CLR 36/M02 A2988 RMK AO2 SLP117 T03611022
KVCB 252053Z AUTO 01006KT 10SM CLR 35/M02 A2990 RMK AO2 SLP123 T03501017 $
KVCB 251953Z AUTO 10SM CLR 34/00 A2992 RMK AO2 SLP130 T03390000 $
KVCB 251853Z AUTO 02009G15KT 10SM CLR 32/00 A2993 RMK AO2 SLP133 T03220000 $
KVCB 251653Z AUTO 00000KT 10SM CLR 26/01 A2994 RMK AO2 SLP136 T02560011
KVCB 251553Z AUTO 00000KT 10SM CLR 21/05 A2993 RMK AO2 SLP134 T02110050
KVCB 251453Z AUTO 00000KT 10SM CLR 16/06 A2991 RMK AO2 SLP128 T01560056 53015
KVCB 251353Z AUTO 00000KT 10SM CLR 11/05 A2989 RMK AO2 SLP122 T01110050
KVCB 251253Z AUTO 00000KT 10SM CLR 13/05 A2988 RMK AO2 SLP118 T01280050
KVCB 251153Z AUTO 22005KT 10SM CLR 14/06 A2987 RMK AO2 SLP112 T01440061 10156 20100 51007
KVCB 251053Z AUTO 24003KT 10SM CLR 11/06 A2987 RMK AO2 SLP112 T01110061
KVCB 250953Z AUTO 00000KT 10SM CLR 13/07 A2987 RMK AO2 SLP112 T01330067
KVCB 250853Z AUTO 00000KT 10SM CLR 12/05 A2985 RMK AO2 SLP105 T01170050 51003
KVCB 250753Z AUTO 09003KT 10SM CLR 13/04 A2984 RMK AO2 SLP104 T01330039 403440094
KVCB 250653Z AUTO 00000KT 10SM CLR 15/04 A2985 RMK AO2 SLP105 T01500044
KVCB 250553Z AUTO 00000KT 10SM CLR 15/03 A2984 RMK AO2 SLP103 T01500028 10339 20144 51011
KVCB 250453Z AUTO 22003KT 10SM CLR 16/03 A2983 RMK AO2 SLP100 T01610033
KVCB 250353Z AUTO 23003KT 10SM CLR 18/03 A2982 RMK AO2 SLP098 T01780028
KVCB 250253Z AUTO 26004KT 10SM CLR 23/03 A2981 RMK AO2 SLP092 T02330033 53003
KVCB 250153Z AUTO 00000KT 10SM CLR 24/03 A2979 RMK AO2 SLP088 T02390033
KVCB 250053Z AUTO 03005KT 10SM CLR 33/01 A2980 RMK AO2 SLP088 T03280006
KVCB 242353Z AUTO VRB04KT 10SM CLR 34/02 A2980 RMK AO2 SLP088 T03390017 10344 20289 56011
KVCB 242253Z AUTO VRB04KT 10SM CLR 34/02 A2980 RMK AO2 SLP090 T03390017